Time;durP1;ratioP1;P1;durP2;ratioP2;P2;SDS_P1;SDS_P2;PMS_P1;PMS_P2;Temp;Humidity;BMP_temperature;BMP_pressure;BME280_temperature;BME280_humidity;BME280_pressure;Samples;Min_cycle;Max_cycle;Signal;HPM_P1;HPM_P2
2021/08/12 00:02:48;;;;;;;5.77;3.90;;;;;;;13.63;65.95;100617.33;153921;1095;103212;-81
2021/08/12 00:05:53;;;;;;;4.85;3.45;;;;;;;13.64;65.86;100618.16;154114;1101;103269;-80
2021/08/12 00:08:58;;;;;;;8.58;3.80;;;;;;;13.58;65.83;100616.97;153956;1096;103132;-79
2021/08/12 00:12:03;;;;;;;4.88;4.00;;;;;;;13.55;66.10;100614.63;153916;1101;103146;-80
2021/08/12 00:15:09;;;;;;;5.00;3.73;;;;;;;13.52;65.66;100618.45;154102;1094;103107;-79
2021/08/12 00:18:14;;;;;;;4.43;3.95;;;;;;;13.51;65.71;100622.16;153971;1096;103224;-78
2021/08/12 00:21:19;;;;;;;4.88;3.83;;;;;;;13.48;65.85;100622.47;153979;1101;103129;-77
2021/08/12 00:24:24;;;;;;;6.13;3.50;;;;;;;13.45;65.93;100622.81;153952;1101;103490;-77
2021/08/12 00:27:30;;;;;;;5.03;3.27;;;;;;;13.39;66.16;100625.30;153940;1096;103144;-78
2021/08/12 00:30:36;;;;;;;5.10;3.20;;;;;;;13.42;66.15;100622.30;153942;1096;103096;-78
2021/08/12 00:33:41;;;;;;;5.60;3.73;;;;;;;13.41;65.78;100623.28;153965;1101;103231;-77
2021/08/12 00:36:46;;;;;;;6.73;3.63;;;;;;;13.42;66.11;100622.30;154001;1095;103118;-77
2021/08/12 00:39:51;;;;;;;6.50;3.43;;;;;;;13.42;65.94;100627.66;153952;1101;103227;-78
2021/08/12 00:42:56;;;;;;;5.45;3.43;;;;;;;13.39;65.87;100627.97;154015;1095;103144;-79
2021/08/12 00:46:01;;;;;;;5.23;3.43;;;;;;;13.35;65.97;100625.60;154300;1096;103128;-79
2021/08/12 00:49:07;;;;;;;5.10;3.47;;;;;;;13.31;65.82;100634.97;153989;1095;103125;-77
2021/08/12 00:52:14;;;;;;;4.43;3.53;;;;;;;13.20;65.89;100626.36;154127;1096;103148;-79
2021/08/12 00:55:21;;;;;;;5.00;3.30;;;;;;;13.13;66.08;100629.69;153954;1096;103122;-77
2021/08/12 00:58:26;;;;;;;5.43;3.40;;;;;;;13.08;65.83;100629.31;153951;1101;103102;-78
2021/08/12 01:01:31;;;;;;;4.20;3.50;;;;;;;13.02;66.17;100629.13;153943;1101;103521;-79
2021/08/12 01:04:36;;;;;;;4.58;3.18;;;;;;;12.95;66.39;100632.45;153960;1101;103202;-78
2021/08/12 01:07:54;;;;;;;5.10;2.70;;;;;;;12.96;66.35;100631.44;153991;1095;103490;-78
2021/08/12 01:11:06;;;;;;;4.73;3.10;;;;;;;13.01;66.42;100630.11;153995;1096;103314;-78
2021/08/12 01:14:23;;;;;;;4.53;2.93;;;;;;;13.03;65.74;100628.11;153959;1095;103218;-79
2021/08/12 01:17:36;;;;;;;4.80;3.23;;;;;;;13.05;66.15;100635.02;153979;1096;103215;-78
2021/08/12 01:21:08;;;;;;;5.90;3.17;;;;;;;13.03;66.13;100631.66;153946;1101;103195;-78
2021/08/12 01:24:16;;;;;;;3.98;2.95;;;;;;;12.93;65.85;100645.17;154020;1101;103189;-78
2021/08/12 01:27:26;;;;;;;4.17;2.90;;;;;;;12.88;66.03;100636.76;153941;1101;103119;-78
2021/08/12 01:30:45;;;;;;;3.37;3.00;;;;;;;12.85;66.33;100634.38;153964;1096;103195;-78
2021/08/12 01:34:03;;;;;;;5.05;3.13;;;;;;;12.78;65.96;100641.39;153954;1101;103119;-79
2021/08/12 01:37:14;;;;;;;4.63;2.98;;;;;;;12.66;66.35;100638.11;154018;1101;103199;-76
2021/08/12 01:40:22;;;;;;;3.73;3.15;;;;;;;12.63;66.43;100646.48;154014;1101;103179;-78
2021/08/12 01:43:29;;;;;;;4.20;3.18;;;;;;;12.50;65.62;100641.52;154008;1101;103121;-78
2021/08/12 01:46:46;;;;;;;4.83;3.23;;;;;;;12.35;66.46;100645.75;153988;1096;103190;-78
2021/08/12 01:49:52;;;;;;;4.63;2.85;;;;;;;12.34;66.41;100644.92;154011;1101;103560;-78
2021/08/12 01:52:58;;;;;;;3.73;2.90;;;;;;;12.40;66.42;100640.79;154028;1096;103772;-81
2021/08/12 01:56:04;;;;;;;5.15;2.75;;;;;;;12.46;66.46;100637.48;154285;1101;103153;-81
2021/08/12 01:59:10;;;;;;;4.63;2.93;;;;;;;12.48;66.46;100651.55;154028;1101;103211;-80
2021/08/12 02:02:17;;;;;;;6.13;2.70;;;;;;;12.47;66.08;100652.56;154120;1095;103594;-79
2021/08/12 02:05:22;;;;;;;5.33;3.10;;;;;;;12.41;65.93;100655.83;153974;1096;103196;-82
2021/08/12 02:08:30;;;;;;;7.18;3.13;;;;;;;12.37;66.35;100651.79;154119;1096;103273;-81
2021/08/12 02:11:36;;;;;;;5.38;2.88;;;;;;;12.34;66.51;100657.47;154060;1101;103212;-79
2021/08/12 02:14:41;;;;;;;6.20;3.20;;;;;;;12.31;66.62;100652.41;154052;1101;103217;-82
2021/08/12 02:17:46;;;;;;;3.53;2.73;;;;;;;12.25;66.27;100663.73;154097;1101;103160;-79
2021/08/12 02:20:57;;;;;;;3.58;2.88;;;;;;;12.14;66.86;100652.29;153971;1101;103248;-81
2021/08/12 02:24:06;;;;;;;3.93;2.90;;;;;;;12.12;66.76;100650.74;153942;1095;103339;-79
2021/08/12 02:27:16;;;;;;;4.53;2.80;;;;;;;12.08;66.84;100660.91;153986;1101;103272;-80
2021/08/12 02:30:22;;;;;;;3.68;2.50;;;;;;;12.10;66.19;100653.56;153968;1101;103119;-78
2021/08/12 02:33:32;;;;;;;3.48;2.68;;;;;;;12.07;66.63;100658.41;153981;1101;103164;-79
2021/08/12 02:36:37;;;;;;;3.60;2.87;;;;;;;12.08;66.87;100660.07;154118;1096;103115;-80
2021/08/12 02:39:46;;;;;;;4.63;2.80;;;;;;;12.11;66.52;100663.28;153989;1096;103701;-79
2021/08/12 02:42:53;;;;;;;3.75;3.10;;;;;;;12.09;67.03;100659.92;154009;1101;103219;-77
2021/08/12 02:46:04;;;;;;;5.83;2.90;;;;;;;12.10;66.48;100656.23;154082;1101;103196;-80
2021/08/12 02:49:11;;;;;;;3.50;2.70;;;;;;;12.05;66.84;100658.55;153990;1096;103675;-79
2021/08/12 02:52:18;;;;;;;4.37;2.70;;;;;;;12.03;66.66;100660.55;154157;1101;103170;-81
2021/08/12 02:55:25;;;;;;;4.20;2.70;;;;;;;12.01;67.01;100654.51;154066;1096;103323;-80
2021/08/12 02:58:32;;;;;;;5.60;2.70;;;;;;;11.96;66.58;100662.14;154129;1101;103129;-83
2021/08/12 03:01:39;;;;;;;4.15;3.10;;;;;;;11.94;66.84;100658.77;154152;1101;103198;-81
2021/08/12 03:04:47;;;;;;;4.80;3.03;;;;;;;11.85;66.91;100667.67;153941;1101;103127;-80
2021/08/12 03:07:53;;;;;;;3.10;2.40;;;;;;;11.81;67.07;100663.63;154035;1095;103117;-77
2021/08/12 03:10:59;;;;;;;5.28;2.38;;;;;;;11.85;66.90;100673.02;153934;1095;103195;-75
2021/08/12 03:14:04;;;;;;;3.40;2.50;;;;;;;11.86;67.15;100669.36;154002;1096;103134;-77
2021/08/12 03:17:11;;;;;;;3.73;2.83;;;;;;;11.85;66.72;100668.50;153971;1096;103195;-78
2021/08/12 03:20:16;;;;;;;4.33;2.80;;;;;;;11.84;66.82;100669.51;153998;1101;103339;-80
2021/08/12 03:23:21;;;;;;;4.73;2.78;;;;;;;11.84;66.36;100666.00;154048;1101;103120;-80
2021/08/12 03:26:26;;;;;;;4.80;2.73;;;;;;;11.83;67.35;100672.33;154027;1096;103291;-79
2021/08/12 03:29:32;;;;;;;3.70;2.83;;;;;;;11.83;67.34;100664.30;153980;1096;103496;-77
2021/08/12 03:32:37;;;;;;;4.20;3.00;;;;;;;11.84;67.22;100672.19;154011;1096;103201;-77
2021/08/12 03:35:42;;;;;;;5.38;2.70;;;;;;;11.86;66.57;100674.71;153910;1096;103137;-77
2021/08/12 03:38:47;;;;;;;4.85;2.90;;;;;;;11.88;66.94;100678.08;153967;1095;103113;-78
2021/08/12 03:41:52;;;;;;;5.80;2.87;;;;;;;11.90;67.54;100674.28;153968;1095;103250;-76
2021/08/12 03:44:58;;;;;;;4.63;2.43;;;;;;;11.91;67.21;100673.30;153986;1096;103125;-79
2021/08/12 03:48:04;;;;;;;4.13;2.50;;;;;;;11.94;67.34;100674.82;153973;1096;103145;-79
2021/08/12 03:51:08;;;;;;;4.10;2.63;;;;;;;12.02;67.49;100685.59;153960;1101;103212;-80
2021/08/12 03:54:13;;;;;;;4.83;2.80;;;;;;;12.10;66.89;100684.83;153995;1101;103128;-80
2021/08/12 03:57:18;;;;;;;3.80;2.43;;;;;;;12.20;67.56;100679.41;153990;1101;103362;-76
2021/08/12 04:00:25;;;;;;;5.50;2.50;;;;;;;12.28;67.08;100684.82;154016;1095;103124;-78
2021/08/12 04:03:30;;;;;;;4.17;2.83;;;;;;;12.34;66.80;100681.55;153971;1101;103646;-76
2021/08/12 04:06:35;;;;;;;2.93;2.47;;;;;;;12.46;67.35;100682.98;153990;1101;103189;-77
2021/08/12 04:09:40;;;;;;;4.35;2.98;;;;;;;12.60;67.61;100691.45;153988;1101;103211;-79
2021/08/12 04:12:46;;;;;;;5.03;2.98;;;;;;;12.72;67.31;100691.06;153996;1096;103312;-79
2021/08/12 04:15:51;;;;;;;4.08;2.73;;;;;;;12.83;66.90;100689.11;153973;1101;103190;-79
2021/08/12 04:18:56;;;;;;;4.07;2.60;;;;;;;12.96;67.47;100690.36;153948;1101;103153;-76
2021/08/12 04:22:01;;;;;;;3.58;2.50;;;;;;;13.09;67.57;100699.84;153942;1096;103192;-75
2021/08/12 04:25:08;;;;;;;5.33;3.03;;;;;;;13.26;67.51;100698.92;154009;1101;103123;-77
2021/08/12 04:28:14;;;;;;;5.15;3.13;;;;;;;13.45;67.49;100699.69;153980;1101;103285;-78
2021/08/12 04:31:19;;;;;;;3.93;2.73;;;;;;;13.63;67.51;100697.77;153974;1101;103154;-81
2021/08/12 04:34:24;;;;;;;6.18;3.13;;;;;;;13.84;67.25;100713.43;153963;1096;103185;-82
2021/08/12 04:37:42;;;;;;;3.57;2.80;;;;;;;14.05;67.50;100712.98;154012;1096;103186;-82
2021/08/12 04:40:47;;;;;;;3.58;2.73;;;;;;;14.27;67.33;100716.86;154106;1101;103205;-81
2021/08/12 04:43:52;;;;;;;3.30;3.00;;;;;;;14.48;67.63;100708.32;154000;1101;103231;-79
2021/08/12 04:46:59;;;;;;;5.35;2.80;;;;;;;14.70;67.83;100709.54;153969;1096;103278;-81
2021/08/12 04:50:06;;;;;;;3.50;2.70;;;;;;;14.99;67.86;100704.61;153964;1093;103129;-79
2021/08/12 04:53:11;;;;;;;5.13;3.87;;;;;;;15.27;68.11;100705.06;153909;1093;103184;-79
2021/08/12 04:56:16;;;;;;;8.13;4.70;;;;;;;15.55;68.06;100699.23;153975;1101;103189;-79
2021/08/12 04:59:21;;;;;;;6.23;4.30;;;;;;;15.83;68.53;100700.47;153995;1101;103272;-78
2021/08/12 05:02:26;;;;;;;6.70;4.67;;;;;;;16.08;68.28;100701.16;153973;1093;103567;-79
2021/08/12 05:05:32;;;;;;;5.63;4.80;;;;;;;16.34;68.52;100705.38;154014;1101;103192;-79
2021/08/12 05:08:37;;;;;;;6.28;4.63;;;;;;;16.54;68.36;100707.58;154218;1101;103203;-82
2021/08/12 05:11:43;;;;;;;4.48;3.83;;;;;;;16.77;68.47;100705.68;154201;1101;103211;-80
2021/08/12 05:14:48;;;;;;;6.27;4.30;;;;;;;16.98;68.42;100713.09;153956;1101;103254;-80
2021/08/12 05:17:54;;;;;;;6.30;4.53;;;;;;;17.17;68.49;100706.33;154152;1094;103132;-81
2021/08/12 05:21:00;;;;;;;6.97;4.37;;;;;;;17.37;68.42;100711.16;154061;1101;103246;-80
2021/08/12 05:24:06;;;;;;;5.13;4.43;;;;;;;17.52;68.42;100717.39;154064;1101;103132;-80
2021/08/12 05:27:11;;;;;;;6.05;4.80;;;;;;;17.62;68.06;100719.80;154017;1093;103464;-81
2021/08/12 05:30:16;;;;;;;5.90;4.90;;;;;;;17.69;68.36;100722.56;154289;1101;103275;-81
2021/08/12 05:33:21;;;;;;;7.07;4.43;;;;;;;17.82;68.28;100725.43;154235;1101;103144;-79
2021/08/12 05:36:27;;;;;;;9.77;5.47;;;;;;;17.92;68.18;100726.02;153933;1093;103096;-80
2021/08/12 05:39:32;;;;;;;7.35;4.95;;;;;;;17.97;68.12;100722.73;153931;1101;103282;-79
2021/08/12 05:42:36;;;;;;;5.65;4.63;;;;;;;18.02;68.19;100726.55;153982;1101;103637;-79
2021/08/12 05:45:41;;;;;;;6.50;5.00;;;;;;;18.12;68.09;100725.41;153965;1093;103153;-76
2021/08/12 05:48:46;;;;;;;8.88;4.80;;;;;;;18.22;67.98;100731.32;154005;1101;103125;-76
2021/08/12 05:51:52;;;;;;;61.38;29.43;;;;;;;18.21;67.81;100725.09;153987;1094;103120;-79
2021/08/12 05:54:57;;;;;;;17.15;9.68;;;;;;;18.24;68.07;100734.66;153956;1093;103110;-79
2021/08/12 05:58:03;;;;;;;8.63;5.55;;;;;;;18.30;67.87;100733.89;153934;1101;103182;-80
2021/08/12 06:01:08;;;;;;;8.98;4.80;;;;;;;18.39;67.98;100738.14;154017;1101;103241;-78
2021/08/12 06:04:13;;;;;;;6.23;4.63;;;;;;;18.49;67.68;100737.00;153982;1101;103205;-77
2021/08/12 06:07:19;;;;;;;11.27;7.53;;;;;;;18.51;67.82;100746.57;153950;1101;103122;-79
2021/08/12 06:10:25;;;;;;;7.60;5.50;;;;;;;18.47;67.31;100744.46;153947;1101;103187;-78
2021/08/12 06:13:30;;;;;;;6.53;4.80;;;;;;;18.45;67.92;100731.14;154082;1101;103096;-73
2021/08/12 06:16:35;;;;;;;5.00;4.20;;;;;;;18.52;67.74;100734.75;153976;1094;103276;-74
2021/08/12 06:19:41;;;;;;;5.73;4.67;;;;;;;18.59;67.66;100740.20;154027;1093;103237;-74
2021/08/12 06:22:46;;;;;;;7.15;4.83;;;;;;;18.57;67.69;100736.86;153998;1093;103219;-74
2021/08/12 06:25:51;;;;;;;10.73;7.73;;;;;;;18.48;67.48;100743.45;153956;1093;103550;-77
2021/08/12 06:28:56;;;;;;;8.05;4.58;;;;;;;18.47;67.71;100744.46;153973;1093;103259;-74
2021/08/12 06:32:01;;;;;;;5.47;3.87;;;;;;;18.58;67.76;100749.36;153974;1101;103330;-77
2021/08/12 06:35:11;;;;;;;5.43;3.90;;;;;;;18.64;67.19;100751.27;154043;1093;103208;-79
2021/08/12 06:38:16;;;;;;;4.83;3.70;;;;;;;18.67;67.15;100747.34;154144;1093;103121;-81
2021/08/12 06:41:21;;;;;;;4.60;4.00;;;;;;;18.68;66.90;100754.43;154202;1101;103222;-80
2021/08/12 06:44:32;;;;;;;5.30;4.07;;;;;;;18.71;67.16;100751.35;154870;1093;103264;-82
2021/08/12 06:47:38;;;;;;;4.43;3.67;;;;;;;18.79;67.48;100762.02;154260;1096;103422;-80
2021/08/12 06:50:44;;;;;;;6.73;3.97;;;;;;;18.84;67.14;100754.17;154543;1101;103199;-80
2021/08/12 06:53:49;;;;;;;5.07;3.30;;;;;;;18.94;66.83;100759.27;154069;1093;103195;-80
2021/08/12 06:56:55;;;;;;;5.20;4.00;;;;;;;18.99;66.25;100760.33;154024;1101;103184;-80
2021/08/12 07:00:00;;;;;;;5.65;5.00;;;;;;;18.99;65.39;100764.91;154169;1101;103133;-80
2021/08/12 07:03:07;;;;;;;6.50;4.50;;;;;;;18.96;66.05;100768.02;154046;1093;103511;-78
2021/08/12 07:06:13;;;;;;;4.40;3.55;;;;;;;19.03;66.71;100761.64;154092;1093;103190;-80
2021/08/12 07:09:18;;;;;;;6.77;4.20;;;;;;;19.14;66.78;100762.12;154398;1094;103224;-83
2021/08/12 07:12:25;;;;;;;4.27;3.00;;;;;;;19.23;66.34;100766.35;154410;1101;103177;-79
2021/08/12 07:15:31;;;;;;;6.20;4.73;;;;;;;19.32;65.88;100758.90;154296;1101;103230;-78
2021/08/12 07:18:36;;;;;;;7.80;4.03;;;;;;;19.34;65.91;100764.95;154557;1101;103266;-77
2021/08/12 07:21:43;;;;;;;5.83;4.57;;;;;;;19.40;66.32;100769.59;154030;1101;103100;-79
2021/08/12 07:24:48;;;;;;;6.13;3.83;;;;;;;19.38;65.90;100767.08;154279;1094;103195;-78
2021/08/12 07:27:54;;;;;;;6.20;3.58;;;;;;;19.44;64.99;100765.45;153994;1101;103125;-78
2021/08/12 07:31:01;;;;;;;5.83;3.30;;;;;;;19.45;64.16;100769.81;154056;1093;103101;-79
2021/08/12 07:34:05;;;;;;;5.38;2.65;;;;;;;19.50;65.42;100772.77;154009;1093;103266;-79
2021/08/12 07:37:10;;;;;;;5.10;3.60;;;;;;;19.65;65.46;100771.79;154214;1093;103208;-80
2021/08/12 07:40:16;;;;;;;5.93;3.50;;;;;;;19.73;64.30;100766.27;154081;1093;103181;-80
2021/08/12 07:43:21;;;;;;;5.87;3.70;;;;;;;19.81;65.28;100771.50;153999;1101;103187;-79
2021/08/12 07:46:26;;;;;;;3.87;2.90;;;;;;;19.80;62.94;100776.09;154060;1101;103097;-82
2021/08/12 07:49:31;;;;;;;4.43;2.47;;;;;;;19.70;62.33;100774.75;154131;1093;103262;-78
2021/08/12 07:52:38;;;;;;;8.55;3.05;;;;;;;19.68;63.01;100776.81;153989;1101;103107;-78
2021/08/12 07:55:43;;;;;;;3.77;2.40;;;;;;;19.73;63.59;100771.68;153967;1101;103192;-80
2021/08/12 07:58:48;;;;;;;4.57;2.90;;;;;;;19.84;62.40;100789.21;153959;1101;103115;-77
2021/08/12 08:01:54;;;;;;;3.75;2.55;;;;;;;19.88;62.13;100796.75;154045;1101;103129;-78
2021/08/12 08:04:58;;;;;;;4.28;2.63;;;;;;;19.88;62.17;100782.34;153982;1093;103291;-78
2021/08/12 08:08:04;;;;;;;5.20;2.70;;;;;;;19.88;61.23;100787.77;153988;1101;103185;-77
2021/08/12 08:11:09;;;;;;;3.97;2.97;;;;;;;19.92;60.89;100787.18;153964;1101;103195;-82
2021/08/12 08:14:14;;;;;;;4.68;2.73;;;;;;;19.96;62.08;100788.45;154112;1093;103477;-80
2021/08/12 08:17:19;;;;;;;4.85;2.73;;;;;;;20.03;62.29;100787.63;154065;1093;103189;-77
2021/08/12 08:20:24;;;;;;;4.85;2.80;;;;;;;20.10;62.45;100791.21;154080;1101;103191;-78
2021/08/12 08:23:29;;;;;;;3.28;2.58;;;;;;;20.16;62.15;100790.39;154146;1101;103105;-79
2021/08/12 08:26:34;;;;;;;4.73;3.77;;;;;;;20.19;62.07;100784.58;154155;1101;103148;-78
2021/08/12 08:29:38;;;;;;;5.98;3.08;;;;;;;20.27;61.45;100788.98;153945;1093;103196;-79
2021/08/12 08:32:43;;;;;;;3.00;2.70;;;;;;;20.38;62.32;100781.09;153974;1093;103125;-78
2021/08/12 08:35:48;;;;;;;5.73;2.63;;;;;;;20.49;61.28;100785.05;153960;1101;103216;-79
2021/08/12 08:38:53;;;;;;;3.60;2.57;;;;;;;20.64;62.08;100790.33;154075;1101;103200;-77
2021/08/12 08:41:58;;;;;;;2.80;2.30;;;;;;;20.75;60.99;100786.19;154078;1101;103209;-77
2021/08/12 08:45:03;;;;;;;4.27;2.50;;;;;;;20.84;59.90;100800.36;154431;1101;103192;-78
2021/08/12 08:48:12;;;;;;;6.80;2.95;;;;;;;20.95;59.68;100797.03;154048;1101;103173;-76
2021/08/12 08:51:17;;;;;;;3.47;2.47;;;;;;;21.11;60.12;100802.06;153978;1101;103187;-77
2021/08/12 08:54:24;;;;;;;3.83;2.50;;;;;;;21.27;61.09;100789.93;154239;1096;103177;-77
2021/08/12 08:57:29;;;;;;;4.10;2.50;;;;;;;21.34;60.26;100790.77;154074;1101;103544;-80
2021/08/12 09:00:34;;;;;;;3.60;2.30;;;;;;;21.27;58.25;100805.39;154029;1101;103236;-78
2021/08/12 09:03:40;;;;;;;3.00;2.20;;;;;;;21.20;59.24;100799.13;154165;1101;103603;-84
2021/08/12 09:06:47;;;;;;;3.55;2.58;;;;;;;21.31;57.07;100798.48;154839;1093;103096;-77
2021/08/12 09:09:52;;;;;;;4.08;2.30;;;;;;;21.28;57.37;100794.30;154505;1101;103128;-77
2021/08/12 09:12:56;;;;;;;4.15;2.35;;;;;;;21.38;58.94;100799.30;154001;1093;103147;-75
2021/08/12 09:16:02;;;;;;;3.60;2.70;;;;;;;21.48;58.16;100790.74;154021;1101;103209;-75
2021/08/12 09:19:21;;;;;;;9.83;4.85;;;;;;;21.41;56.28;100803.48;153940;1094;103184;-79
2021/08/12 09:22:26;;;;;;;5.37;3.60;;;;;;;21.28;55.10;100793.47;154026;1101;103206;-77
2021/08/12 09:25:40;;;;;;;7.40;3.50;;;;;;;21.33;56.01;100796.40;154072;1094;103125;-78
2021/08/12 09:28:46;;;;;;;7.65;3.80;;;;;;;21.64;58.04;100784.88;154189;1101;103184;-75
2021/08/12 09:32:03;;;;;;;4.05;3.00;;;;;;;21.89;58.38;100793.14;154172;1101;103188;-77
2021/08/12 09:35:09;;;;;;;8.00;4.73;;;;;;;22.03;55.15;100801.25;154079;1093;103128;-78
2021/08/12 09:38:16;;;;;;;13.13;7.13;;;;;;;22.07;54.31;100806.02;153993;1093;103200;-77
2021/08/12 09:41:21;;;;;;;17.90;10.87;;;;;;;22.08;55.25;100806.88;154025;1093;103218;-78
2021/08/12 09:44:49;;;;;;;11.17;8.73;;;;;;;22.05;55.83;100796.42;153999;1101;103189;-76
2021/08/12 09:47:55;;;;;;;5.40;4.27;;;;;;;22.18;56.40;100799.09;153971;1101;104166;-78
2021/08/12 09:51:05;;;;;;;3.53;3.20;;;;;;;22.26;55.29;100803.47;154154;1093;103161;-82
2021/08/12 09:54:10;;;;;;;5.37;3.90;;;;;;;22.28;55.32;100802.20;154170;1093;103124;-80
2021/08/12 09:57:21;;;;;;;5.30;3.48;;;;;;;22.34;56.62;100801.34;154123;1101;103218;-77
2021/08/12 10:00:38;;;;;;;6.40;3.10;;;;;;;22.48;55.88;100802.10;154028;1093;103128;-76
2021/08/12 10:03:44;;;;;;;6.60;4.23;;;;;;;22.46;55.47;100803.34;153998;1093;103136;-77
2021/08/12 10:06:50;;;;;;;6.57;4.60;;;;;;;22.50;54.55;100789.12;154141;1093;103133;-73
2021/08/12 10:09:55;;;;;;;4.87;4.37;;;;;;;22.58;55.89;100796.18;153995;1093;103122;-75
2021/08/12 10:13:02;;;;;;;6.50;5.10;;;;;;;22.60;52.62;100804.95;154149;1101;103100;-82
2021/08/12 10:16:08;;;;;;;4.20;3.70;;;;;;;22.42;54.59;100802.13;154612;1094;103101;-77
2021/08/12 10:19:15;;;;;;;4.07;3.63;;;;;;;22.56;54.06;100809.16;154200;1101;103212;-77
2021/08/12 10:22:20;;;;;;;3.55;3.10;;;;;;;22.64;53.81;100800.73;154217;1101;103221;-74
2021/08/12 10:25:27;;;;;;;4.95;2.80;;;;;;;22.62;52.85;100791.14;154225;1101;103282;-75
2021/08/12 10:28:35;;;;;;;4.87;2.83;;;;;;;22.67;54.04;100797.59;155145;1094;103467;-75
2021/08/12 10:31:44;;;;;;;4.03;3.33;;;;;;;22.73;53.19;100795.88;153978;1101;103559;-76
2021/08/12 10:34:49;;;;;;;3.28;2.80;;;;;;;22.83;54.29;100793.49;153960;1093;103158;-76
2021/08/12 10:37:55;;;;;;;5.77;5.17;;;;;;;22.81;52.67;100800.22;154012;1093;103217;-77
2021/08/12 10:40:59;;;;;;;3.83;3.30;;;;;;;22.82;52.13;100793.70;154121;1101;103125;-75
2021/08/12 10:44:05;;;;;;;3.48;3.18;;;;;;;22.75;53.81;100807.38;154034;1101;103126;-76
2021/08/12 10:47:40;;;;;;;4.50;4.10;;;;;;;22.63;53.76;100798.23;154042;1093;103211;-76
2021/08/12 10:50:45;;;;;;;3.75;3.10;;;;;;;22.76;53.83;100797.31;153986;1101;103113;-76
2021/08/12 10:54:17;;;;;;;3.58;3.20;;;;;;;22.87;52.94;100788.45;153981;1101;103099;-75
2021/08/12 10:57:25;;;;;;;3.78;3.10;;;;;;;22.87;53.16;100791.98;154001;1093;103268;-75
2021/08/12 11:00:50;;;;;;;4.43;2.97;;;;;;;22.70;53.19;100797.13;154121;1101;103120;-76
2021/08/12 11:04:00;;;;;;;3.20;2.80;;;;;;;22.83;53.61;100789.94;153980;1101;103198;-75
2021/08/12 11:07:06;;;;;;;2.83;2.48;;;;;;;22.89;53.59;100795.32;154094;1093;103163;-75
2021/08/12 11:10:13;;;;;;;2.73;2.30;;;;;;;22.83;52.58;100795.39;154095;1093;103120;-78
2021/08/12 11:13:34;;;;;;;2.78;2.40;;;;;;;22.74;51.39;100800.25;154103;1101;103175;-81
2021/08/12 11:16:55;;;;;;;3.43;2.50;;;;;;;22.77;51.75;100794.38;154245;1093;103206;-77
2021/08/12 11:20:00;;;;;;;29.73;9.00;;;;;;;22.84;51.71;100788.88;153975;1093;103184;-79
2021/08/12 11:23:41;;;;;;;13.90;5.53;;;;;;;22.67;50.62;100794.02;153984;1101;103123;-78
2021/08/12 11:27:07;;;;;;;4.88;2.93;;;;;;;22.37;50.87;100793.80;153991;1101;103196;-78
2021/08/12 11:30:50;;;;;;;15.35;8.75;;;;;;;22.39;50.84;100786.27;154104;1093;103250;-79
2021/08/12 11:33:57;;;;;;;6.45;4.20;;;;;;;22.58;52.11;100785.30;154024;1094;103154;-79
2021/08/12 11:37:12;;;;;;;9.50;5.93;;;;;;;22.66;51.73;100784.20;154050;1101;103145;-80
2021/08/12 11:40:17;;;;;;;9.33;5.68;;;;;;;22.66;51.89;100793.19;154086;1101;103560;-79
2021/08/12 11:43:22;;;;;;;9.87;7.20;;;;;;;22.52;51.24;100786.19;154145;1101;103194;-78
2021/08/12 11:46:27;;;;;;;4.87;3.70;;;;;;;22.29;52.03;100784.84;154011;1101;103191;-80
2021/08/12 11:49:32;;;;;;;3.97;2.87;;;;;;;22.16;52.66;100787.60;154035;1093;103124;-79
2021/08/12 11:52:38;;;;;;;3.67;2.93;;;;;;;22.14;52.27;100786.98;154107;1101;103221;-79
2021/08/12 11:55:43;;;;;;;4.73;3.47;;;;;;;22.21;52.81;100784.22;153952;1101;103136;-78
2021/08/12 11:58:50;;;;;;;4.57;3.40;;;;;;;22.26;51.52;100787.98;153989;1093;103217;-78
2021/08/12 12:01:56;;;;;;;3.90;2.83;;;;;;;22.32;52.33;100778.13;154032;1101;103476;-79
2021/08/12 12:05:01;;;;;;;4.20;3.07;;;;;;;22.53;52.61;100782.39;153988;1101;103544;-77
2021/08/12 12:08:08;;;;;;;4.77;3.30;;;;;;;22.74;52.97;100789.37;153979;1093;103506;-77
2021/08/12 12:11:14;;;;;;;3.50;2.70;;;;;;;22.79;50.68;100785.97;153992;1101;103326;-78
2021/08/12 12:14:21;;;;;;;3.33;2.27;;;;;;;22.53;50.96;100790.55;153978;1101;103123;-77
2021/08/12 12:17:26;;;;;;;3.23;2.38;;;;;;;22.37;51.75;100789.19;154018;1094;103199;-80
2021/08/12 12:20:39;;;;;;;17.10;12.20;;;;;;;22.37;51.26;100788.38;154664;1101;103122;-77
2021/08/12 12:23:46;;;;;;;6.83;5.67;;;;;;;22.53;52.00;100793.27;154115;1096;103142;-79
2021/08/12 12:26:58;;;;;;;4.95;3.90;;;;;;;22.73;50.63;100793.98;154063;1101;103185;-79
2021/08/12 12:30:12;;;;;;;4.88;3.58;;;;;;;22.83;50.69;100796.21;154180;1096;103135;-79
2021/08/12 12:33:22;;;;;;;5.23;3.97;;;;;;;22.98;50.53;100793.17;154132;1101;103206;-77
2021/08/12 12:36:27;;;;;;;3.60;3.30;;;;;;;23.09;50.61;100788.91;153995;1101;103121;-79
2021/08/12 12:39:32;;;;;;;4.00;3.25;;;;;;;23.20;49.90;100788.18;154020;1101;103203;-79
2021/08/12 12:42:38;;;;;;;3.55;2.93;;;;;;;23.24;49.95;100783.95;154078;1101;103200;-80
2021/08/12 12:45:48;;;;;;;3.53;2.70;;;;;;;23.21;49.51;100789.00;154079;1101;103176;-76
2021/08/12 12:48:53;;;;;;;2.48;2.28;;;;;;;23.16;47.59;100788.86;154068;1101;103273;-75
2021/08/12 12:52:09;;;;;;;3.10;2.53;;;;;;;23.17;49.92;100775.00;153999;1101;103122;-75
2021/08/12 12:55:21;;;;;;;4.03;3.10;;;;;;;23.29;50.11;100773.23;154055;1101;103197;-75
2021/08/12 12:58:28;;;;;;;4.73;2.50;;;;;;;23.38;49.81;100773.75;153997;1101;103119;-74
2021/08/12 13:01:33;;;;;;;6.07;2.67;;;;;;;23.29;49.05;100780.58;154055;1096;103196;-73
2021/08/12 13:04:38;;;;;;;5.40;3.67;;;;;;;23.12;49.22;100775.69;154055;1096;103253;-75
2021/08/12 13:07:43;;;;;;;3.40;3.10;;;;;;;22.95;49.09;100774.55;153969;1101;103141;-75
2021/08/12 13:11:07;;;;;;;3.83;3.10;;;;;;;22.88;49.11;100771.91;153982;1095;103190;-75
2021/08/12 13:14:13;;;;;;;3.40;2.40;;;;;;;22.99;49.70;100774.95;153987;1096;103200;-75
2021/08/12 13:21:25;;;;;;;4.43;2.90;;;;;;;22.90;48.94;100763.48;154015;1089;104610;-74
2021/08/12 13:24:37;;;;;;;6.07;4.70;;;;;;;22.85;49.71;100768.78;154089;1101;103183;-73
2021/08/12 13:27:45;;;;;;;3.70;2.60;;;;;;;22.96;49.53;100759.91;154024;1097;103180;-73
2021/08/12 13:30:48;;;;;;;2.90;2.60;;;;;;;23.05;48.39;100744.97;154013;1095;103104;-73
2021/08/12 13:33:50;;;;;;;2.60;2.40;;;;;;;23.07;49.32;100748.30;154067;1101;103288;-74
2021/08/12 13:36:53;;;;;;;2.90;2.53;;;;;;;23.07;49.39;100751.02;154044;1101;103122;-72
2021/08/12 13:39:56;;;;;;;3.80;3.20;;;;;;;22.97;48.27;100752.56;154008;1097;103144;-71
2021/08/12 13:42:59;;;;;;;5.27;4.20;;;;;;;22.82;49.23;100751.00;154008;1097;103102;-72
2021/08/12 13:46:02;;;;;;;3.25;2.55;;;;;;;22.71;49.07;100741.69;154033;1097;103197;-74
2021/08/12 13:49:04;;;;;;;4.27;2.40;;;;;;;22.72;49.22;100750.67;154047;1101;103267;-74
2021/08/12 13:52:08;;;;;;;2.50;2.30;;;;;;;22.81;49.29;100743.91;154040;1101;103114;-74
2021/08/12 13:55:11;;;;;;;3.50;2.50;;;;;;;22.87;48.06;100756.61;153993;1101;103189;-75
2021/08/12 13:58:14;;;;;;;4.40;2.67;;;;;;;22.90;48.28;100742.58;153961;1097;103130;-76
2021/08/12 14:01:17;;;;;;;2.53;2.27;;;;;;;23.02;48.29;100745.40;154000;1096;103544;-74
2021/08/12 14:04:21;;;;;;;2.83;2.30;;;;;;;23.15;49.05;100730.02;154064;1101;103305;-73
2021/08/12 14:07:24;;;;;;;3.63;2.47;;;;;;;23.28;48.74;100733.43;154034;1097;103682;-74
2021/08/12 14:10:26;;;;;;;3.00;2.50;;;;;;;23.49;47.72;100737.60;153998;1095;103143;-76
2021/08/12 14:13:29;;;;;;;3.33;2.30;;;;;;;23.67;47.91;100734.06;154103;1101;103144;-72
2021/08/12 14:16:32;;;;;;;2.57;2.20;;;;;;;23.84;47.94;100734.28;154015;1101;103221;-76